sensor_id;sensor_type;location;lat;lon;timestamp;pressure;altitude;pressure_sealevel;temperature;humidity
68107;BME280;54892;47.488;19.026;2022-10-31T00:01:10;100711.97;;;12.47;96.10
68107;BME280;54892;47.488;19.026;2022-10-31T00:04:13;100715.56;;;12.36;96.93
68107;BME280;54892;47.488;19.026;2022-10-31T00:07:18;100707.56;;;12.30;97.47
68107;BME280;54892;47.488;19.026;2022-10-31T00:10:21;100697.59;;;12.38;96.60
68107;BME280;54892;47.488;19.026;2022-10-31T00:13:25;100704.69;;;12.32;97.33
68107;BME280;54892;47.488;19.026;2022-10-31T00:16:29;100700.94;;;12.28;97.55
68107;BME280;54892;47.488;19.026;2022-10-31T00:19:33;100696.47;;;12.28;97.20
68107;BME280;54892;47.488;19.026;2022-10-31T00:22:37;100701.69;;;12.23;97.43
68107;BME280;54892;47.488;19.026;2022-10-31T00:25:41;100701.50;;;12.30;96.12
68107;BME280;54892;47.488;19.026;2022-10-31T00:28:44;100697.38;;;12.17;97.41
68107;BME280;54892;47.488;19.026;2022-10-31T00:31:47;100699.47;;;12.15;97.79
68107;BME280;54892;47.488;19.026;2022-10-31T00:34:51;100691.50;;;12.10;98.06
68107;BME280;54892;47.488;19.026;2022-10-31T00:37:55;100696.22;;;12.08;98.52
68107;BME280;54892;47.488;19.026;2022-10-31T00:40:59;100695.94;;;12.04;98.89
68107;BME280;54892;47.488;19.026;2022-10-31T00:44:02;100691.72;;;12.08;98.95
68107;BME280;54892;47.488;19.026;2022-10-31T00:47:05;100692.28;;;12.10;98.84
68107;BME280;54892;47.488;19.026;2022-10-31T00:50:09;100690.25;;;12.17;98.68
68107;BME280;54892;47.488;19.026;2022-10-31T00:53:13;100690.19;;;12.12;98.47
68107;BME280;54892;47.488;19.026;2022-10-31T00:56:16;100679.59;;;12.12;98.57
68107;BME280;54892;47.488;19.026;2022-10-31T00:59:20;100692.28;;;12.10;98.62
68107;BME280;54892;47.488;19.026;2022-10-31T01:02:23;100686.69;;;12.07;98.44
68107;BME280;54892;47.488;19.026;2022-10-31T01:05:27;100690.38;;;12.06;98.62
68107;BME280;54892;47.488;19.026;2022-10-31T01:08:32;100691.13;;;12.01;98.57
68107;BME280;54892;47.488;19.026;2022-10-31T01:11:35;100693.22;;;11.99;98.86
68107;BME280;54892;47.488;19.026;2022-10-31T01:14:41;100688.72;;;11.99;98.84
68107;BME280;54892;47.488;19.026;2022-10-31T01:17:45;100682.62;;;11.99;98.91
68107;BME280;54892;47.488;19.026;2022-10-31T01:20:57;100683.91;;;11.96;99.22
68107;BME280;54892;47.488;19.026;2022-10-31T01:24:03;100687.34;;;11.97;99.44
68107;BME280;54892;47.488;19.026;2022-10-31T01:27:06;100679.66;;;11.95;99.41
68107;BME280;54892;47.488;19.026;2022-10-31T01:30:11;100676.75;;;11.97;99.41
68107;BME280;54892;47.488;19.026;2022-10-31T01:33:14;100681.25;;;11.96;99.81
68107;BME280;54892;47.488;19.026;2022-10-31T01:36:20;100673.19;;;12.08;99.08
68107;BME280;54892;47.488;19.026;2022-10-31T01:39:25;100673.81;;;11.93;98.93
68107;BME280;54892;47.488;19.026;2022-10-31T01:42:28;100676.16;;;11.90;99.25
68107;BME280;54892;47.488;19.026;2022-10-31T01:45:32;100665.81;;;11.88;99.04
68107;BME280;54892;47.488;19.026;2022-10-31T01:48:36;100667.41;;;11.89;99.08
68107;BME280;54892;47.488;19.026;2022-10-31T01:51:44;100669.75;;;11.85;99.40
68107;BME280;54892;47.488;19.026;2022-10-31T01:54:53;100668.47;;;11.88;99.30
68107;BME280;54892;47.488;19.026;2022-10-31T01:58:02;100674.56;;;11.88;99.26
68107;BME280;54892;47.488;19.026;2022-10-31T02:01:07;100669.84;;;11.91;97.38
68107;BME280;54892;47.488;19.026;2022-10-31T02:04:11;100665.25;;;11.86;97.99
68107;BME280;54892;47.488;19.026;2022-10-31T02:07:16;100658.31;;;11.80;97.74
68107;BME280;54892;47.488;19.026;2022-10-31T02:10:24;100665.16;;;11.76;97.81
68107;BME280;54892;47.488;19.026;2022-10-31T02:13:28;100667.87;;;11.81;97.44
68107;BME280;54892;47.488;19.026;2022-10-31T02:16:32;100663.25;;;11.71;98.14
68107;BME280;54892;47.488;19.026;2022-10-31T02:19:43;100658.44;;;11.68;98.58
68107;BME280;54892;47.488;19.026;2022-10-31T02:23:14;100657.66;;;11.67;98.83
68107;BME280;54892;47.488;19.026;2022-10-31T02:30:05;100658.44;;;11.68;99.61
68107;BME280;54892;47.488;19.026;2022-10-31T02:33:20;100655.53;;;11.69;99.33
68107;BME280;54892;47.488;19.026;2022-10-31T02:36:29;100651.56;;;11.67;99.94
68107;BME280;54892;47.488;19.026;2022-10-31T02:39:42;100657.13;;;11.70;100.00
68107;BME280;54892;47.488;19.026;2022-10-31T02:42:50;100656.59;;;11.68;100.00
68107;BME280;54892;47.488;19.026;2022-10-31T02:46:01;100663.47;;;11.69;100.00
68107;BME280;54892;47.488;19.026;2022-10-31T02:49:10;100664.78;;;11.67;99.98
68107;BME280;54892;47.488;19.026;2022-10-31T02:52:20;100664.00;;;11.66;100.00
68107;BME280;54892;47.488;19.026;2022-10-31T02:55:44;100671.41;;;11.69;100.00
68107;BME280;54892;47.488;19.026;2022-10-31T02:58:51;100674.06;;;11.69;100.00
68107;BME280;54892;47.488;19.026;2022-10-31T03:02:06;100678.28;;;11.70;99.95
68107;BME280;54892;47.488;19.026;2022-10-31T03:05:23;100670.38;;;11.70;99.70
68107;BME280;54892;47.488;19.026;2022-10-31T03:08:33;100672.28;;;11.75;99.51
68107;BME280;54892;47.488;19.026;2022-10-31T03:11:44;100670.13;;;11.72;98.33
68107;BME280;54892;47.488;19.026;2022-10-31T03:14:53;100680.56;;;11.62;99.02
68107;BME280;54892;47.488;19.026;2022-10-31T03:18:00;100677.50;;;11.70;97.83
68107;BME280;54892;47.488;19.026;2022-10-31T03:21:10;100678.34;;;11.53;99.28
68107;BME280;54892;47.488;19.026;2022-10-31T03:24:16;100683.38;;;11.55;99.74
68107;BME280;54892;47.488;19.026;2022-10-31T03:27:23;100678.34;;;11.53;99.35
68107;BME280;54892;47.488;19.026;2022-10-31T03:30:29;100686.28;;;11.53;99.24
68107;BME280;54892;47.488;19.026;2022-10-31T03:33:38;100684.69;;;11.52;99.53
68107;BME280;54892;47.488;19.026;2022-10-31T03:36:45;100686.53;;;11.52;97.95
68107;BME280;54892;47.488;19.026;2022-10-31T03:39:49;100690.06;;;11.40;99.08
68107;BME280;54892;47.488;19.026;2022-10-31T03:42:56;100684.56;;;11.42;99.46
68107;BME280;54892;47.488;19.026;2022-10-31T03:46:02;100693.53;;;11.41;98.79
68107;BME280;54892;47.488;19.026;2022-10-31T03:49:06;100689.22;;;11.57;98.43
68107;BME280;54892;47.488;19.026;2022-10-31T03:52:15;100694.25;;;11.36;99.51
68107;BME280;54892;47.488;19.026;2022-10-31T03:55:26;100689.50;;;11.38;99.36
68107;BME280;54892;47.488;19.026;2022-10-31T03:58:34;100699.84;;;11.23;100.00
68107;BME280;54892;47.488;19.026;2022-10-31T04:01:41;100696.12;;;11.19;100.00
68107;BME280;54892;47.488;19.026;2022-10-31T04:04:47;100697.06;;;11.12;100.00
68107;BME280;54892;47.488;19.026;2022-10-31T04:07:54;100696.19;;;11.24;100.00
68107;BME280;54892;47.488;19.026;2022-10-31T04:11:00;100690.19;;;11.29;100.00
68107;BME280;54892;47.488;19.026;2022-10-31T04:14:05;100692.50;;;11.42;100.00
68107;BME280;54892;47.488;19.026;2022-10-31T04:17:12;100697.53;;;11.43;100.00
68107;BME280;54892;47.488;19.026;2022-10-31T04:20:28;100687.91;;;11.37;100.00
68107;BME280;54892;47.488;19.026;2022-10-31T04:23:34;100695.13;;;11.42;100.00
68107;BME280;54892;47.488;19.026;2022-10-31T04:26:38;100702.81;;;11.43;100.00
68107;BME280;54892;47.488;19.026;2022-10-31T04:29:42;100701.75;;;11.45;100.00
68107;BME280;54892;47.488;19.026;2022-10-31T04:32:46;100711.84;;;11.48;100.00
68107;BME280;54892;47.488;19.026;2022-10-31T04:35:49;100704.50;;;11.50;100.00
68107;BME280;54892;47.488;19.026;2022-10-31T04:38:55;100712.66;;;11.48;100.00
68107;BME280;54892;47.488;19.026;2022-10-31T04:41:59;100709.53;;;11.51;100.00
68107;BME280;54892;47.488;19.026;2022-10-31T04:45:03;100717.75;;;11.55;100.00
68107;BME280;54892;47.488;19.026;2022-10-31T04:48:06;100710.94;;;11.59;100.00
68107;BME280;54892;47.488;19.026;2022-10-31T04:51:09;100717.34;;;11.63;99.49
68107;BME280;54892;47.488;19.026;2022-10-31T04:54:15;100714.63;;;11.58;100.00
68107;BME280;54892;47.488;19.026;2022-10-31T04:57:18;100712.00;;;11.58;100.00
68107;BME280;54892;47.488;19.026;2022-10-31T05:00:22;100711.69;;;11.54;100.00
68107;BME280;54892;47.488;19.026;2022-10-31T05:03:25;100715.69;;;11.57;100.00
68107;BME280;54892;47.488;19.026;2022-10-31T05:06:29;100712.00;;;11.58;100.00
68107;BME280;54892;47.488;19.026;2022-10-31T05:09:34;100713.03;;;11.57;100.00
68107;BME280;54892;47.488;19.026;2022-10-31T05:12:38;100710.38;;;11.57;100.00
68107;BME280;54892;47.488;19.026;2022-10-31T05:15:49;100716.50;;;11.57;100.00
68107;BME280;54892;47.488;19.026;2022-10-31T05:18:53;100717.34;;;11.63;100.00
68107;BME280;54892;47.488;19.026;2022-10-31T05:21:56;100716.78;;;11.61;100.00
68107;BME280;54892;47.488;19.026;2022-10-31T05:25:01;100722.16;;;11.66;100.00
68107;BME280;54892;47.488;19.026;2022-10-31T05:28:04;100716.31;;;11.64;100.00
68107;BME280;54892;47.488;19.026;2022-10-31T05:31:08;100723.44;;;11.64;100.00
68107;BME280;54892;47.488;19.026;2022-10-31T05:34:12;100708.44;;;11.69;99.76
68107;BME280;54892;47.488;19.026;2022-10-31T05:37:16;100718.69;;;11.66;100.00
68107;BME280;54892;47.488;19.026;2022-10-31T05:40:21;100727.19;;;11.68;99.78
68107;BME280;54892;47.488;19.026;2022-10-31T05:43:25;100732.22;;;11.69;100.00
68107;BME280;54892;47.488;19.026;2022-10-31T05:46:28;100727.44;;;11.66;100.00
68107;BME280;54892;47.488;19.026;2022-10-31T05:49:32;100739.63;;;11.67;100.00
68107;BME280;54892;47.488;19.026;2022-10-31T05:52:36;100747.56;;;11.50;100.00
68107;BME280;54892;47.488;19.026;2022-10-31T05:55:41;100735.41;;;11.49;100.00
68107;BME280;54892;47.488;19.026;2022-10-31T05:58:45;100745.97;;;11.49;100.00
68107;BME280;54892;47.488;19.026;2022-10-31T06:01:48;100739.06;;;11.65;100.00
68107;BME280;54892;47.488;19.026;2022-10-31T06:04:51;100724.72;;;11.61;100.00
68107;BME280;54892;47.488;19.026;2022-10-31T06:07:55;100729.06;;;11.67;100.00
68107;BME280;54892;47.488;19.026;2022-10-31T06:10:59;100737.22;;;11.66;100.00
68107;BME280;54892;47.488;19.026;2022-10-31T06:14:02;100743.84;;;11.68;100.00
68107;BME280;54892;47.488;19.026;2022-10-31T06:17:06;100741.53;;;11.72;100.00
68107;BME280;54892;47.488;19.026;2022-10-31T06:20:09;100739.69;;;11.72;100.00
68107;BME280;54892;47.488;19.026;2022-10-31T06:23:13;100730.59;;;11.85;99.64
68107;BME280;54892;47.488;19.026;2022-10-31T06:26:18;100736.25;;;11.72;100.00
68107;BME280;54892;47.488;19.026;2022-10-31T06:29:21;100747.31;;;11.69;100.00
68107;BME280;54892;47.488;19.026;2022-10-31T06:32:25;100740.88;;;11.82;100.00
68107;BME280;54892;47.488;19.026;2022-10-31T06:35:29;100737.91;;;11.78;100.00
68107;BME280;54892;47.488;19.026;2022-10-31T06:38:32;100747.22;;;11.81;100.00
68107;BME280;54892;47.488;19.026;2022-10-31T06:41:37;100753.78;;;11.78;100.00
68107;BME280;54892;47.488;19.026;2022-10-31T06:44:41;100750.25;;;11.72;100.00
68107;BME280;54892;47.488;19.026;2022-10-31T06:47:50;100765.66;;;11.76;100.00
68107;BME280;54892;47.488;19.026;2022-10-31T06:51:11;100763.56;;;11.78;100.00
68107;BME280;54892;47.488;19.026;2022-10-31T06:54:15;100774.38;;;11.76;100.00
68107;BME280;54892;47.488;19.026;2022-10-31T06:57:19;100767.31;;;11.82;100.00
68107;BME280;54892;47.488;19.026;2022-10-31T07:00:24;100772.34;;;12.00;97.15
68107;BME280;54892;47.488;19.026;2022-10-31T07:03:27;100776.22;;;11.76;99.19
68107;BME280;54892;47.488;19.026;2022-10-31T07:06:31;100778.59;;;11.77;99.97
68107;BME280;54892;47.488;19.026;2022-10-31T07:09:34;100777.91;;;11.82;99.03
68107;BME280;54892;47.488;19.026;2022-10-31T07:12:39;100780.59;;;11.87;98.49
68107;BME280;54892;47.488;19.026;2022-10-31T07:15:43;100781.97;;;11.90;97.64
68107;BME280;54892;47.488;19.026;2022-10-31T07:18:47;100782.47;;;11.86;98.53
68107;BME280;54892;47.488;19.026;2022-10-31T07:21:52;100773.16;;;12.01;97.30
68107;BME280;54892;47.488;19.026;2022-10-31T07:24:56;100774.56;;;11.92;98.18
68107;BME280;54892;47.488;19.026;2022-10-31T07:28:00;100779.84;;;11.92;99.03
68107;BME280;54892;47.488;19.026;2022-10-31T07:31:04;100779.75;;;11.98;98.86
68107;BME280;54892;47.488;19.026;2022-10-31T07:34:07;100772.59;;;11.99;98.65
68107;BME280;54892;47.488;19.026;2022-10-31T07:37:10;100778.09;;;11.97;98.58
68107;BME280;54892;47.488;19.026;2022-10-31T07:40:14;100777.44;;;12.07;98.21
68107;BME280;54892;47.488;19.026;2022-10-31T07:43:19;100781.09;;;12.01;98.58
68107;BME280;54892;47.488;19.026;2022-10-31T07:46:22;100784.84;;;12.05;98.77
68107;BME280;54892;47.488;19.026;2022-10-31T07:49:26;100789.87;;;12.07;98.42
68107;BME280;54892;47.488;19.026;2022-10-31T07:52:29;100790.94;;;12.06;98.45
68107;BME280;54892;47.488;19.026;2022-10-31T07:55:33;100792.28;;;12.08;98.23
68107;BME280;54892;47.488;19.026;2022-10-31T07:58:38;100787.09;;;11.96;98.61
68107;BME280;54892;47.488;19.026;2022-10-31T08:01:41;100785.47;;;11.95;98.85
68107;BME280;54892;47.488;19.026;2022-10-31T08:04:44;100788.34;;;11.94;98.93
68107;BME280;54892;47.488;19.026;2022-10-31T08:07:48;100789.97;;;11.95;99.23
68107;BME280;54892;47.488;19.026;2022-10-31T08:10:52;100786.53;;;11.94;99.28
68107;BME280;54892;47.488;19.026;2022-10-31T08:13:57;100786.28;;;11.96;99.31
68107;BME280;54892;47.488;19.026;2022-10-31T08:17:00;100792.87;;;11.93;99.25
68107;BME280;54892;47.488;19.026;2022-10-31T08:20:04;100794.47;;;11.94;99.37
68107;BME280;54892;47.488;19.026;2022-10-31T08:23:11;100804.09;;;12.00;99.19
68107;BME280;54892;47.488;19.026;2022-10-31T08:26:15;100801.09;;;11.97;99.40
68107;BME280;54892;47.488;19.026;2022-10-31T08:29:20;100802.47;;;11.99;99.25
68107;BME280;54892;47.488;19.026;2022-10-31T08:32:23;100800.31;;;11.96;99.39
68107;BME280;54892;47.488;19.026;2022-10-31T08:35:27;100798.31;;;12.03;99.34
68107;BME280;54892;47.488;19.026;2022-10-31T08:38:31;100798.09;;;12.05;99.08
68107;BME280;54892;47.488;19.026;2022-10-31T08:41:34;100793.31;;;12.07;99.35
68107;BME280;54892;47.488;19.026;2022-10-31T08:44:39;100796.53;;;12.09;99.26
68107;BME280;54892;47.488;19.026;2022-10-31T08:47:43;100783.56;;;12.08;99.38
68107;BME280;54892;47.488;19.026;2022-10-31T08:50:46;100797.53;;;12.25;98.72
68107;BME280;54892;47.488;19.026;2022-10-31T08:53:50;100792.47;;;12.24;97.43
68107;BME280;54892;47.488;19.026;2022-10-31T08:56:54;100797.34;;;12.10;98.65
68107;BME280;54892;47.488;19.026;2022-10-31T08:59:59;100800.47;;;12.07;99.06
68107;BME280;54892;47.488;19.026;2022-10-31T09:03:04;100805.03;;;12.33;97.26
68107;BME280;54892;47.488;19.026;2022-10-31T09:06:08;100808.72;;;12.10;97.45
68107;BME280;54892;47.488;19.026;2022-10-31T09:09:11;100806.09;;;11.93;99.34
68107;BME280;54892;47.488;19.026;2022-10-31T09:12:15;100804.34;;;11.99;99.60
68107;BME280;54892;47.488;19.026;2022-10-31T09:15:20;100810.97;;;12.01;99.29
68107;BME280;54892;47.488;19.026;2022-10-31T09:18:25;100807.88;;;11.87;100.00
68107;BME280;54892;47.488;19.026;2022-10-31T09:21:30;100802.31;;;11.89;100.00
68107;BME280;54892;47.488;19.026;2022-10-31T09:24:33;100802.81;;;11.86;100.00
68107;BME280;54892;47.488;19.026;2022-10-31T09:27:37;100813.06;;;11.99;99.81
68107;BME280;54892;47.488;19.026;2022-10-31T09:30:42;100814.03;;;11.93;100.00
68107;BME280;54892;47.488;19.026;2022-10-31T09:33:45;100813.16;;;11.87;100.00
68107;BME280;54892;47.488;19.026;2022-10-31T09:36:49;100816.03;;;12.03;100.00
68107;BME280;54892;47.488;19.026;2022-10-31T09:39:52;100815.00;;;11.87;99.63
68107;BME280;54892;47.488;19.026;2022-10-31T09:43:01;100812.28;;;11.99;99.63
68107;BME280;54892;47.488;19.026;2022-10-31T09:46:14;100816.19;;;11.96;99.24
68107;BME280;54892;47.488;19.026;2022-10-31T09:49:34;100819.63;;;11.97;99.15
68107;BME280;54892;47.488;19.026;2022-10-31T09:52:43;100817.97;;;11.91;100.00
68107;BME280;54892;47.488;19.026;2022-10-31T09:55:51;100813.72;;;11.90;99.95
68107;BME280;54892;47.488;19.026;2022-10-31T09:58:56;100818.50;;;11.93;100.00
68107;BME280;54892;47.488;19.026;2022-10-31T10:02:08;100812.50;;;11.97;100.00
68107;BME280;54892;47.488;19.026;2022-10-31T10:05:18;100812.34;;;12.04;99.35
68107;BME280;54892;47.488;19.026;2022-10-31T10:08:26;100808.25;;;11.96;99.97
68107;BME280;54892;47.488;19.026;2022-10-31T10:11:40;100814.62;;;12.17;98.59
68107;BME280;54892;47.488;19.026;2022-10-31T10:14:57;100810.00;;;12.08;98.82
68107;BME280;54892;47.488;19.026;2022-10-31T10:18:08;100810.00;;;12.08;99.05
68107;BME280;54892;47.488;19.026;2022-10-31T10:21:22;100807.09;;;12.09;98.98
68107;BME280;54892;47.488;19.026;2022-10-31T10:24:38;100804.84;;;12.18;98.74
68107;BME280;54892;47.488;19.026;2022-10-31T10:27:50;100806.41;;;12.14;97.87
68107;BME280;54892;47.488;19.026;2022-10-31T10:31:01;100807.78;;;11.99;98.23
68107;BME280;54892;47.488;19.026;2022-10-31T10:34:13;100806.50;;;12.24;97.19
68107;BME280;54892;47.488;19.026;2022-10-31T10:37:24;100800.72;;;12.05;98.44
68107;BME280;54892;47.488;19.026;2022-10-31T10:40:30;100803.59;;;12.03;99.08
68107;BME280;54892;47.488;19.026;2022-10-31T10:43:34;100800.22;;;12.08;99.39
68107;BME280;54892;47.488;19.026;2022-10-31T10:46:41;100794.75;;;12.15;99.07
68107;BME280;54892;47.488;19.026;2022-10-31T10:50:07;100791.88;;;12.16;98.15
68107;BME280;54892;47.488;19.026;2022-10-31T10:53:23;100787.50;;;12.27;97.23
68107;BME280;54892;47.488;19.026;2022-10-31T10:56:45;100794.75;;;12.15;97.36
68107;BME280;54892;47.488;19.026;2022-10-31T10:59:51;100793.69;;;12.16;97.86
68107;BME280;54892;47.488;19.026;2022-10-31T11:02:55;100787.06;;;12.13;97.82
68107;BME280;54892;47.488;19.026;2022-10-31T11:06:00;100785.28;;;12.19;96.82
68107;BME280;54892;47.488;19.026;2022-10-31T11:09:08;100784.16;;;12.15;97.39
68107;BME280;54892;47.488;19.026;2022-10-31T11:12:19;100795.19;;;12.29;96.20
68107;BME280;54892;47.488;19.026;2022-10-31T11:15:25;100782.69;;;12.24;96.51
68107;BME280;54892;47.488;19.026;2022-10-31T11:18:30;100783.63;;;12.35;95.45
68107;BME280;54892;47.488;19.026;2022-10-31T11:21:39;100786.13;;;12.25;95.78
68107;BME280;54892;47.488;19.026;2022-10-31T11:24:42;100781.28;;;12.39;95.12
68107;BME280;54892;47.488;19.026;2022-10-31T11:27:45;100780.66;;;12.31;95.30
68107;BME280;54892;47.488;19.026;2022-10-31T11:30:51;100770.38;;;12.35;95.60
68107;BME280;54892;47.488;19.026;2022-10-31T11:33:58;100770.94;;;12.37;95.60
68107;BME280;54892;47.488;19.026;2022-10-31T11:37:09;100765.44;;;12.44;94.79
68107;BME280;54892;47.488;19.026;2022-10-31T11:40:17;100770.19;;;12.42;95.32
68107;BME280;54892;47.488;19.026;2022-10-31T11:43:22;100767.06;;;12.45;95.46
68107;BME280;54892;47.488;19.026;2022-10-31T11:46:30;100768.69;;;12.51;94.56
68107;BME280;54892;47.488;19.026;2022-10-31T11:49:38;100761.19;;;12.43;94.29
68107;BME280;54892;47.488;19.026;2022-10-31T11:52:44;100768.41;;;12.47;94.26
68107;BME280;54892;47.488;19.026;2022-10-31T11:55:47;100768.03;;;12.39;94.64
68107;BME280;54892;47.488;19.026;2022-10-31T11:59:05;100764.84;;;12.37;94.65
68107;BME280;54892;47.488;19.026;2022-10-31T12:02:14;100769.00;;;12.32;95.54
68107;BME280;54892;47.488;19.026;2022-10-31T12:05:23;100767.00;;;12.40;95.00
68107;BME280;54892;47.488;19.026;2022-10-31T12:08:33;100770.06;;;12.31;95.72
68107;BME280;54892;47.488;19.026;2022-10-31T12:11:46;100764.53;;;12.33;95.69
68107;BME280;54892;47.488;19.026;2022-10-31T12:15:02;100769.09;;;12.38;95.25
68107;BME280;54892;47.488;19.026;2022-10-31T12:18:28;100764.84;;;12.37;95.27
68107;BME280;54892;47.488;19.026;2022-10-31T12:21:56;100759.03;;;12.40;94.97
68107;BME280;54892;47.488;19.026;2022-10-31T12:25:28;100764.94;;;12.25;95.50
68107;BME280;54892;47.488;19.026;2022-10-31T12:28:41;100773.75;;;12.30;95.22
68107;BME280;54892;47.488;19.026;2022-10-31T12:32:00;100770.56;;;12.28;95.71
68107;BME280;54892;47.488;19.026;2022-10-31T12:35:33;100761.53;;;12.24;96.17
68107;BME280;54892;47.488;19.026;2022-10-31T12:38:53;100767.00;;;12.40;95.04
68107;BME280;54892;47.488;19.026;2022-10-31T12:42:09;100758.38;;;12.27;94.88
68107;BME280;54892;47.488;19.026;2022-10-31T12:45:35;100761.59;;;12.29;94.82
68107;BME280;54892;47.488;19.026;2022-10-31T12:48:52;100758.87;;;12.24;95.55
68107;BME280;54892;47.488;19.026;2022-10-31T12:52:14;100756.53;;;12.28;95.85
68107;BME280;54892;47.488;19.026;2022-10-31T12:55:31;100752.47;;;12.20;96.09
68107;BME280;54892;47.488;19.026;2022-10-31T12:58:43;100759.78;;;12.35;95.06
68107;BME280;54892;47.488;19.026;2022-10-31T13:01:51;100757.28;;;12.23;96.15
68107;BME280;54892;47.488;19.026;2022-10-31T13:04:58;100754.12;;;12.26;96.47
68107;BME280;54892;47.488;19.026;2022-10-31T13:08:06;100758.38;;;12.27;95.42
68107;BME280;54892;47.488;19.026;2022-10-31T13:11:14;100753.88;;;12.28;95.62
68107;BME280;54892;47.488;19.026;2022-10-31T13:14:23;100759.09;;;12.45;94.54
68107;BME280;54892;47.488;19.026;2022-10-31T13:17:33;100753.50;;;12.19;96.39
68107;BME280;54892;47.488;19.026;2022-10-31T13:20:40;100747.16;;;12.20;96.47
68107;BME280;54892;47.488;19.026;2022-10-31T13:23:47;100751.41;;;12.21;96.37
68107;BME280;54892;47.488;19.026;2022-10-31T13:26:54;100744.53;;;12.20;96.26
68107;BME280;54892;47.488;19.026;2022-10-31T13:30:02;100751.12;;;12.17;96.39
68107;BME280;54892;47.488;19.026;2022-10-31T13:33:11;100753.59;;;12.24;95.87
68107;BME280;54892;47.488;19.026;2022-10-31T13:36:25;100752.53;;;12.25;95.09
68107;BME280;54892;47.488;19.026;2022-10-31T13:39:48;100741.28;;;12.13;96.27
68107;BME280;54892;47.488;19.026;2022-10-31T13:42:58;100741.66;;;12.22;95.92
68107;BME280;54892;47.488;19.026;2022-10-31T13:46:24;100752.09;;;12.11;96.01
68107;BME280;54892;47.488;19.026;2022-10-31T13:49:38;100745.00;;;12.17;95.78
68107;BME280;54892;47.488;19.026;2022-10-31T13:52:42;100747.06;;;12.10;95.01
68107;BME280;54892;47.488;19.026;2022-10-31T13:55:46;100746.22;;;12.04;94.89
68107;BME280;54892;47.488;19.026;2022-10-31T13:59:14;100744.59;;;12.03;95.79
68107;BME280;54892;47.488;19.026;2022-10-31T14:02:25;100752.66;;;12.13;95.32
68107;BME280;54892;47.488;19.026;2022-10-31T14:05:31;100745.63;;;12.24;93.94
68107;BME280;54892;47.488;19.026;2022-10-31T14:08:37;100751.34;;;12.16;94.59
68107;BME280;54892;47.488;19.026;2022-10-31T14:11:45;100742.06;;;12.13;94.92
68107;BME280;54892;47.488;19.026;2022-10-31T14:14:52;100744.47;;;12.15;94.94
68107;BME280;54892;47.488;19.026;2022-10-31T14:18:01;100744.12;;;11.89;95.80
68107;BME280;54892;47.488;19.026;2022-10-31T14:21:15;100750.62;;;11.81;97.01
68107;BME280;54892;47.488;19.026;2022-10-31T14:24:34;100748.81;;;11.82;97.24
68107;BME280;54892;47.488;19.026;2022-10-31T14:27:46;100740.38;;;11.85;96.98
68107;BME280;54892;47.488;19.026;2022-10-31T14:30:53;100733.13;;;11.97;96.28
68107;BME280;54892;47.488;19.026;2022-10-31T14:33:58;100747.06;;;12.10;95.29
68107;BME280;54892;47.488;19.026;2022-10-31T14:37:37;100743.00;;;12.02;95.98
68107;BME280;54892;47.488;19.026;2022-10-31T14:40:53;100748.63;;;11.88;96.58
68107;BME280;54892;47.488;19.026;2022-10-31T14:44:19;100737.12;;;11.78;97.57
68107;BME280;54892;47.488;19.026;2022-10-31T14:47:34;100737.50;;;11.69;97.67
68107;BME280;54892;47.488;19.026;2022-10-31T14:50:47;100744.97;;;11.72;97.07
68107;BME280;54892;47.488;19.026;2022-10-31T14:53:53;100738.87;;;11.72;97.28
68107;BME280;54892;47.488;19.026;2022-10-31T14:56:59;100736.62;;;11.81;96.85
68107;BME280;54892;47.488;19.026;2022-10-31T15:00:07;100733.34;;;11.73;97.45
68107;BME280;54892;47.488;19.026;2022-10-31T15:03:14;100742.81;;;11.69;97.99
68107;BME280;54892;47.488;19.026;2022-10-31T15:06:21;100744.75;;;11.74;97.83
68107;BME280;54892;47.488;19.026;2022-10-31T15:09:27;100738.06;;;11.71;98.02
68107;BME280;54892;47.488;19.026;2022-10-31T15:12:32;100738.72;;;11.79;97.94
68107;BME280;54892;47.488;19.026;2022-10-31T15:15:37;100737.28;;;11.71;98.15
68107;BME280;54892;47.488;19.026;2022-10-31T15:18:47;100738.59;;;11.91;97.31
68107;BME280;54892;47.488;19.026;2022-10-31T15:21:54;100733.53;;;11.89;96.76
68107;BME280;54892;47.488;19.026;2022-10-31T15:24:58;100732.75;;;11.88;96.96
68107;BME280;54892;47.488;19.026;2022-10-31T15:28:13;100735.72;;;11.92;96.70
68107;BME280;54892;47.488;19.026;2022-10-31T15:31:17;100730.56;;;11.63;98.53
68107;BME280;54892;47.488;19.026;2022-10-31T15:34:22;100731.06;;;11.60;99.29
68107;BME280;54892;47.488;19.026;2022-10-31T15:37:29;100730.62;;;11.68;98.76
68107;BME280;54892;47.488;19.026;2022-10-31T15:40:33;100734.50;;;11.61;99.48
68107;BME280;54892;47.488;19.026;2022-10-31T15:43:38;100742.28;;;11.67;99.32
68107;BME280;54892;47.488;19.026;2022-10-31T15:46:42;100740.91;;;11.65;99.52
68107;BME280;54892;47.488;19.026;2022-10-31T15:49:48;100743.25;;;11.61;99.95
68107;BME280;54892;47.488;19.026;2022-10-31T15:52:54;100752.84;;;11.67;100.00
68107;BME280;54892;47.488;19.026;2022-10-31T15:56:00;100753.47;;;11.75;99.66
68107;BME280;54892;47.488;19.026;2022-10-31T15:59:03;100757.84;;;11.86;99.09
68107;BME280;54892;47.488;19.026;2022-10-31T16:02:10;100754.22;;;11.92;98.01
68107;BME280;54892;47.488;19.026;2022-10-31T16:05:18;100754.63;;;12.01;97.28
68107;BME280;54892;47.488;19.026;2022-10-31T16:08:26;100756.59;;;11.71;98.68